Time;durP1;ratioP1;P1;durP2;ratioP2;P2;SDS_P1;SDS_P2;PMS_P1;PMS_P2;Temp;Humidity;BMP_temperature;BMP_pressure;BME280_temperature;BME280_humidity;BME280_pressure;Samples;Min_cycle;Max_cycle;Signal;HPM_P1;HPM_P2
2022/07/11 00:02:16;;;;;;;6.57;2.67;;;17.60;99.90;;;;;;5096663;28;20040;-72
2022/07/11 00:04:42;;;;;;;8.80;2.40;;;17.60;99.90;;;;;;5096894;28;20406;-72
2022/07/11 00:07:09;;;;;;;8.43;2.73;;;17.60;99.90;;;;;;5096814;28;20396;-72
2022/07/11 00:09:34;;;;;;;7.20;2.67;;;17.50;99.90;;;;;;5095868;28;20060;-72
2022/07/11 00:12:00;;;;;;;8.17;3.20;;;17.50;99.90;;;;;;5096655;28;20044;-72
2022/07/11 00:14:27;;;;;;;8.43;2.90;;;17.50;99.90;;;;;;5096566;28;20051;-72
2022/07/11 00:16:53;;;;;;;8.73;2.80;;;17.50;99.90;;;;;;5096240;28;20127;-72
2022/07/11 00:19:20;;;;;;;6.67;2.13;;;17.50;99.90;;;;;;5096567;28;20048;-72
2022/07/11 00:21:46;;;;;;;8.03;3.37;;;17.50;99.90;;;;;;5096308;28;20105;-72
2022/07/11 00:24:12;;;;;;;8.97;3.10;;;17.50;99.90;;;;;;5096556;28;20094;-71
2022/07/11 00:26:38;;;;;;;9.67;3.07;;;17.50;99.90;;;;;;5096284;28;20098;-73
2022/07/11 00:29:05;;;;;;;6.67;2.80;;;17.40;99.90;;;;;;5096514;28;20104;-72
2022/07/11 00:31:31;;;;;;;5.63;2.47;;;17.50;99.90;;;;;;5096143;28;20112;-72
2022/07/11 00:33:57;;;;;;;7.97;2.97;;;17.40;99.90;;;;;;5096059;28;20407;-72
2022/07/11 00:36:23;;;;;;;5.53;2.10;;;17.40;99.90;;;;;;5096244;28;20130;-71
2022/07/11 00:38:49;;;;;;;6.67;2.67;;;17.40;99.90;;;;;;5095976;28;20075;-72
2022/07/11 00:41:16;;;;;;;5.73;2.30;;;17.40;99.90;;;;;;5096402;28;20056;-72
2022/07/11 00:43:42;;;;;;;6.47;2.40;;;17.40;99.90;;;;;;5095816;28;20044;-72
2022/07/11 00:46:09;;;;;;;8.77;2.40;;;17.40;99.90;;;;;;5094895;28;20479;-72
2022/07/11 00:48:36;;;;;;;5.77;2.33;;;17.40;99.90;;;;;;5095848;28;20457;-71
2022/07/11 00:51:03;;;;;;;7.40;2.67;;;17.40;99.90;;;;;;5095701;28;20130;-72
2022/07/11 00:53:30;;;;;;;7.53;2.97;;;17.30;99.90;;;;;;5094874;28;20056;-71
2022/07/11 00:55:56;;;;;;;7.60;2.50;;;17.30;99.90;;;;;;5095578;28;20044;-72
2022/07/11 00:58:22;;;;;;;7.97;2.40;;;17.30;99.90;;;;;;5095744;28;20040;-72
2022/07/11 01:00:49;;;;;;;6.90;2.53;;;17.30;99.90;;;;;;5095316;28;20044;-72
2022/07/11 01:03:15;;;;;;;7.13;2.60;;;17.30;99.90;;;;;;5096108;28;20040;-71
2022/07/11 01:05:41;;;;;;;7.83;2.27;;;17.30;99.90;;;;;;5095017;28;20079;-71
2022/07/11 01:08:06;;;;;;;7.77;2.43;;;17.20;99.90;;;;;;5094538;28;20510;-72
2022/07/11 01:10:33;;;;;;;6.43;2.90;;;17.20;99.90;;;;;;5095516;28;20044;-72
2022/07/11 01:12:59;;;;;;;7.03;2.67;;;17.20;99.90;;;;;;5095208;28;20116;-72
2022/07/11 01:15:25;;;;;;;8.10;2.63;;;17.20;99.90;;;;;;5095389;28;20044;-72
2022/07/11 01:17:54;;;;;;;8.10;3.07;;;17.20;99.90;;;;;;5095217;28;20100;-72
2022/07/11 01:20:22;;;;;;;9.53;3.20;;;17.20;99.90;;;;;;5095648;28;20051;-72
2022/07/11 01:22:52;;;;;;;8.87;3.63;;;17.20;99.90;;;;;;5095031;28;20127;-72
2022/07/11 01:25:31;;;;;;;10.50;2.93;;;17.20;99.90;;;;;;5095230;28;20051;-72
2022/07/11 01:27:57;;;;;;;9.53;3.23;;;17.20;99.90;;;;;;5094846;28;20126;-72
2022/07/11 01:30:25;;;;;;;10.13;2.90;;;17.20;99.90;;;;;;5095656;28;20044;-72
2022/07/11 01:32:52;;;;;;;7.53;2.43;;;17.10;99.90;;;;;;5095012;28;20048;-72
2022/07/11 01:35:18;;;;;;;8.40;3.10;;;17.10;99.90;;;;;;5095075;28;20059;-72
2022/07/11 01:37:44;;;;;;;10.13;3.77;;;17.20;99.90;;;;;;5094788;28;20059;-72
2022/07/11 01:40:10;;;;;;;11.93;3.23;;;17.20;99.90;;;;;;5093758;28;20055;-72
2022/07/11 01:42:36;;;;;;;6.93;2.57;;;17.10;99.90;;;;;;5094955;28;20044;-72
2022/07/11 01:45:02;;;;;;;8.13;3.13;;;17.10;99.90;;;;;;5094784;28;20047;-72
2022/07/11 01:47:27;;;;;;;10.90;3.37;;;17.10;99.90;;;;;;5095207;28;20040;-72
2022/07/11 01:49:53;;;;;;;6.70;2.67;;;17.10;99.90;;;;;;5094476;28;20518;-72
2022/07/11 01:52:19;;;;;;;6.83;2.87;;;17.10;99.90;;;;;;5094705;28;20097;-72
2022/07/11 01:54:44;;;;;;;9.50;3.33;;;17.10;99.90;;;;;;5093484;28;20036;-72
2022/07/11 01:57:10;;;;;;;7.87;3.13;;;17.00;99.90;;;;;;5094270;28;20052;-72
2022/07/11 01:59:36;;;;;;;9.77;3.10;;;17.00;99.90;;;;;;5094653;28;20036;-72
2022/07/11 02:02:02;;;;;;;9.97;3.10;;;17.00;99.90;;;;;;5094418;28;20068;-72
2022/07/11 02:04:28;;;;;;;14.10;3.57;;;17.00;99.90;;;;;;5094488;28;20511;-71
2022/07/11 02:06:53;;;;;;;10.87;2.90;;;17.00;99.90;;;;;;5093242;28;20114;-72
2022/07/11 02:09:20;;;;;;;9.10;3.60;;;17.00;99.90;;;;;;5093479;28;20550;-71
2022/07/11 02:11:46;;;;;;;8.50;3.10;;;17.00;99.90;;;;;;5094243;28;20063;-72
2022/07/11 02:14:12;;;;;;;8.27;3.33;;;17.00;99.90;;;;;;5094051;28;20044;-72
2022/07/11 02:16:38;;;;;;;7.13;2.90;;;17.00;99.90;;;;;;5093333;28;20440;-71
2022/07/11 02:19:05;;;;;;;8.27;3.77;;;17.00;99.90;;;;;;5092796;28;20126;-71
2022/07/11 02:21:31;;;;;;;7.07;3.30;;;17.00;99.90;;;;;;5094221;28;20056;-71
2022/07/11 02:23:56;;;;;;;8.40;3.30;;;17.00;99.90;;;;;;5093958;28;20135;-72
2022/07/11 02:26:22;;;;;;;6.23;2.90;;;17.00;99.90;;;;;;5093987;28;20094;-71
2022/07/11 02:28:48;;;;;;;9.03;3.40;;;16.90;99.90;;;;;;5094469;28;20047;-72
2022/07/11 02:31:13;;;;;;;8.63;3.30;;;17.00;99.90;;;;;;5093534;28;20050;-71
2022/07/11 02:33:39;;;;;;;8.60;3.00;;;16.90;99.90;;;;;;5094221;28;20044;-71
2022/07/11 02:36:07;;;;;;;6.73;3.10;;;16.90;99.90;;;;;;5093639;28;20411;-71
2022/07/11 02:38:32;;;;;;;6.70;3.07;;;17.00;99.90;;;;;;5094234;28;20048;-71
2022/07/11 02:40:58;;;;;;;8.60;2.90;;;16.90;99.90;;;;;;5093469;28;20513;-71
2022/07/11 02:43:24;;;;;;;8.83;3.30;;;16.90;99.90;;;;;;5092750;28;20104;-71
2022/07/11 02:45:50;;;;;;;8.13;2.93;;;16.90;99.90;;;;;;5093641;28;20055;-71
2022/07/11 02:48:16;;;;;;;7.47;2.87;;;16.90;99.90;;;;;;5093558;28;20036;-71
2022/07/11 02:50:41;;;;;;;8.33;3.10;;;16.90;99.90;;;;;;5093585;28;20051;-71
2022/07/11 02:53:07;;;;;;;8.10;2.63;;;16.90;99.90;;;;;;5092383;28;20044;-71
2022/07/11 02:55:32;;;;;;;7.10;3.03;;;16.90;99.90;;;;;;5093534;28;20110;-72
2022/07/11 02:57:59;;;;;;;6.90;2.63;;;16.80;99.90;;;;;;5093598;28;20051;-71
2022/07/11 03:00:24;;;;;;;6.60;2.93;;;16.80;99.90;;;;;;5093576;28;20052;-72
2022/07/11 03:02:50;;;;;;;5.70;2.40;;;16.80;99.90;;;;;;5093438;28;20552;-71
2022/07/11 03:05:16;;;;;;;6.03;2.80;;;16.80;99.90;;;;;;5092157;28;20434;-71
2022/07/11 03:07:42;;;;;;;7.23;2.87;;;16.80;99.90;;;;;;5093251;28;20241;-71
2022/07/11 03:10:08;;;;;;;5.93;2.73;;;16.80;99.90;;;;;;5092892;28;20044;-71
2022/07/11 03:12:34;;;;;;;7.47;3.03;;;16.80;99.90;;;;;;5093476;28;20119;-71
2022/07/11 03:15:00;;;;;;;6.20;3.00;;;16.80;99.90;;;;;;5093245;28;20048;-71
2022/07/11 03:17:26;;;;;;;6.00;3.00;;;16.80;99.90;;;;;;5092165;28;20503;-71
2022/07/11 03:19:52;;;;;;;6.23;2.73;;;16.80;99.90;;;;;;5093148;28;20123;-71
2022/07/11 03:22:17;;;;;;;4.13;2.57;;;16.80;99.90;;;;;;5092930;28;20872;-71
2022/07/11 03:24:43;;;;;;;5.57;2.83;;;16.80;99.90;;;;;;5093024;28;20105;-71
2022/07/11 03:27:10;;;;;;;6.70;2.63;;;16.90;99.90;;;;;;5091977;28;20407;-71
2022/07/11 03:29:36;;;;;;;5.93;2.37;;;16.90;99.90;;;;;;5091601;28;20048;-71
2022/07/11 03:32:02;;;;;;;6.43;2.60;;;16.80;99.90;;;;;;5092865;28;20074;-72
2022/07/11 03:34:28;;;;;;;5.53;2.37;;;16.80;99.90;;;;;;5093177;28;20048;-71
2022/07/11 03:36:54;;;;;;;6.03;2.20;;;16.80;99.90;;;;;;5091932;28;20044;-71
2022/07/11 03:39:21;;;;;;;7.33;2.47;;;16.80;99.90;;;;;;5092332;28;20083;-71
2022/07/11 03:41:47;;;;;;;4.37;2.13;;;16.80;99.90;;;;;;5093054;28;20082;-71
2022/07/11 03:44:13;;;;;;;6.33;2.73;;;16.90;99.90;;;;;;5092806;28;20498;-71
2022/07/11 03:46:38;;;;;;;6.23;2.53;;;16.90;99.90;;;;;;5091905;28;20044;-71
2022/07/11 03:49:04;;;;;;;6.30;2.80;;;16.90;99.90;;;;;;5092645;28;20051;-71
2022/07/11 03:51:30;;;;;;;6.10;2.60;;;16.90;99.90;;;;;;5092802;28;20044;-70
2022/07/11 03:53:56;;;;;;;3.63;2.20;;;16.80;99.90;;;;;;5092661;28;20154;-71
2022/07/11 03:56:22;;;;;;;5.03;2.37;;;16.80;99.90;;;;;;5092607;28;20097;-71
2022/07/11 03:58:51;;;;;;;4.77;2.40;;;16.80;99.90;;;;;;5092709;28;20045;-71
2022/07/11 04:01:19;;;;;;;5.77;2.17;;;16.90;99.90;;;;;;5091489;28;20084;-71
2022/07/11 04:03:46;;;;;;;7.70;2.20;;;16.80;99.90;;;;;;5092862;28;20419;-71
2022/07/11 04:06:12;;;;;;;5.37;2.77;;;16.80;99.90;;;;;;5092340;28;20044;-71
2022/07/11 04:08:38;;;;;;;6.27;2.27;;;16.80;99.90;;;;;;5092578;28;20032;-71
2022/07/11 04:11:04;;;;;;;6.43;2.60;;;16.90;99.90;;;;;;5091648;28;20063;-72
2022/07/11 04:13:30;;;;;;;5.67;2.27;;;16.80;99.90;;;;;;5092703;28;20480;-71
2022/07/11 04:15:56;;;;;;;4.47;2.10;;;16.80;99.90;;;;;;5092653;28;20058;-71
2022/07/11 04:18:22;;;;;;;4.97;2.10;;;16.80;99.90;;;;;;5092185;28;20048;-71
2022/07/11 04:20:49;;;;;;;5.60;2.00;;;16.80;99.90;;;;;;5092421;28;20150;-71
2022/07/11 04:23:15;;;;;;;5.07;1.90;;;16.80;99.90;;;;;;5091139;28;20063;-71
2022/07/11 04:25:42;;;;;;;4.73;2.37;;;16.80;99.90;;;;;;5092587;28;20079;-71
2022/07/11 04:28:08;;;;;;;5.23;1.90;;;16.80;99.90;;;;;;5092044;28;20098;-72
2022/07/11 04:30:33;;;;;;;5.07;2.10;;;16.80;99.90;;;;;;5092283;28;20052;-71
2022/07/11 04:32:59;;;;;;;3.70;2.00;;;16.80;99.90;;;;;;5092512;28;20515;-71
2022/07/11 04:35:27;;;;;;;5.83;2.50;;;16.80;99.90;;;;;;5092074;28;20058;-71
2022/07/11 04:37:53;;;;;;;6.87;2.70;;;16.80;99.90;;;;;;5092279;28;20081;-71
2022/07/11 04:40:23;;;;;;;4.13;2.20;;;16.80;99.90;;;;;;5092278;28;20445;-71
2022/07/11 04:42:52;;;;;;;5.40;2.10;;;16.80;99.90;;;;;;5095933;28;20094;-71
2022/07/11 04:45:19;;;;;;;3.53;1.80;;;16.80;99.90;;;;;;5095790;28;20135;-71
2022/07/11 04:47:44;;;;;;;5.10;1.70;;;16.80;99.90;;;;;;5095853;28;20058;-71
2022/07/11 04:50:10;;;;;;;3.93;1.63;;;16.80;99.90;;;;;;5094359;28;20048;-71
2022/07/11 04:52:36;;;;;;;4.07;1.50;;;16.80;99.90;;;;;;5096035;28;20134;-71
2022/07/11 04:55:02;;;;;;;3.23;1.40;;;16.80;99.90;;;;;;5096108;28;20040;-71
2022/07/11 04:57:27;;;;;;;3.70;1.50;;;16.80;99.90;;;;;;5095778;28;20086;-71
2022/07/11 04:59:53;;;;;;;4.83;1.40;;;16.80;99.90;;;;;;5094629;28;20518;-71
2022/07/11 05:02:19;;;;;;;2.47;1.30;;;16.80;99.90;;;;;;5095481;28;20055;-71
2022/07/11 05:04:45;;;;;;;2.50;1.23;;;16.90;99.90;;;;;;5095732;28;20088;-71
2022/07/11 05:07:13;;;;;;;2.60;1.73;;;16.90;99.90;;;;;;5095866;28;20193;-71
2022/07/11 05:09:39;;;;;;;6.07;1.60;;;16.80;99.90;;;;;;5095602;28;20488;-71
2022/07/11 05:12:06;;;;;;;5.53;1.87;;;16.90;99.90;;;;;;5095134;28;20047;-71
2022/07/11 05:14:32;;;;;;;4.27;1.50;;;16.90;99.90;;;;;;5095174;28;20141;-71
2022/07/11 05:16:58;;;;;;;3.67;1.70;;;16.90;99.90;;;;;;5095426;28;20079;-71
2022/07/11 05:19:23;;;;;;;3.70;1.63;;;16.90;99.90;;;;;;5093875;28;20044;-71
2022/07/11 05:21:49;;;;;;;4.07;1.80;;;16.90;99.90;;;;;;5095692;28;20048;-71
2022/07/11 05:24:15;;;;;;;3.37;1.50;;;16.90;99.90;;;;;;5095332;28;20052;-71
2022/07/11 05:26:44;;;;;;;4.47;1.73;;;16.90;99.90;;;;;;5094443;28;20400;-71
2022/07/11 05:29:10;;;;;;;2.83;1.33;;;16.90;99.90;;;;;;5095395;28;20040;-71
2022/07/11 05:31:36;;;;;;;8.20;1.80;;;17.00;99.90;;;;;;5093750;28;20047;-71
2022/07/11 05:34:02;;;;;;;2.90;1.40;;;17.00;99.90;;;;;;5094815;28;20073;-71
2022/07/11 05:36:28;;;;;;;3.10;1.30;;;17.00;99.90;;;;;;5095023;28;20063;-71
2022/07/11 05:38:53;;;;;;;4.97;1.43;;;17.00;99.90;;;;;;5094952;28;20487;-71
2022/07/11 05:41:19;;;;;;;3.50;1.40;;;17.00;99.90;;;;;;5094872;28;20109;-72
2022/07/11 05:43:45;;;;;;;3.23;1.40;;;17.10;99.90;;;;;;5094912;28;20089;-71
2022/07/11 05:46:10;;;;;;;4.73;2.10;;;17.10;99.90;;;;;;5095066;28;20052;-71
2022/07/11 05:48:36;;;;;;;3.53;1.27;;;17.10;99.90;;;;;;5093585;28;20065;-71
2022/07/11 05:51:02;;;;;;;3.90;1.40;;;17.20;99.90;;;;;;5095135;28;20055;-71
2022/07/11 05:53:27;;;;;;;2.17;0.93;;;17.20;99.90;;;;;;5094443;28;20110;-71
2022/07/11 05:55:53;;;;;;;3.10;1.20;;;17.20;99.90;;;;;;5094937;28;20052;-71
2022/07/11 05:58:19;;;;;;;2.97;1.30;;;17.20;99.90;;;;;;5094415;28;20079;-72
2022/07/11 06:00:44;;;;;;;2.30;1.00;;;17.30;99.90;;;;;;5094663;28;20044;-71
2022/07/11 06:03:10;;;;;;;1.90;1.03;;;17.30;99.90;;;;;;5094442;28;20059;-71
2022/07/11 06:05:36;;;;;;;2.40;1.10;;;17.30;99.90;;;;;;5094324;28;20441;-71
2022/07/11 06:10:45;;;;;;;4.73;1.17;;;17.30;99.90;;;;;;5093529;28;20484;-71
2022/07/11 06:13:11;;;;;;;2.40;0.93;;;17.30;99.90;;;;;;5094634;28;20039;-71
2022/07/11 06:15:37;;;;;;;2.00;1.00;;;17.40;99.90;;;;;;5094024;28;20100;-72
2022/07/11 06:18:03;;;;;;;2.50;1.00;;;17.50;99.90;;;;;;5093471;28;20048;-71
2022/07/11 06:20:29;;;;;;;1.83;1.00;;;17.50;99.90;;;;;;5093164;28;20059;-71
2022/07/11 06:22:55;;;;;;;2.37;1.00;;;17.50;99.90;;;;;;5093307;28;20040;-71
2022/07/11 06:25:21;;;;;;;3.17;1.07;;;17.50;99.90;;;;;;5094364;28;20047;-71
2022/07/11 06:27:46;;;;;;;2.90;1.03;;;17.50;99.90;;;;;;5093990;28;20541;-71
2022/07/11 06:30:12;;;;;;;2.10;0.90;;;17.50;99.90;;;;;;5093968;28;20083;-71
2022/07/11 06:32:39;;;;;;;2.10;0.90;;;17.50;99.90;;;;;;5093614;28;20074;-71
2022/07/11 06:35:06;;;;;;;2.30;0.90;;;17.50;99.90;;;;;;5093775;28;20518;-71
2022/07/11 06:37:32;;;;;;;2.53;0.80;;;17.50;99.90;;;;;;5093552;28;20398;-72
2022/07/11 06:39:58;;;;;;;1.90;0.97;;;17.60;99.90;;;;;;5094250;28;20051;-71
2022/07/11 06:42:24;;;;;;;2.40;0.97;;;17.70;99.90;;;;;;5093892;28;20415;-72
2022/07/11 06:44:49;;;;;;;1.20;0.80;;;17.70;99.90;;;;;;5092548;28;20130;-71
2022/07/11 06:47:15;;;;;;;2.00;1.03;;;17.70;99.90;;;;;;5092952;28;20051;-72
2022/07/11 06:49:40;;;;;;;2.00;0.90;;;17.70;99.90;;;;;;5093666;28;20108;-72
2022/07/11 06:52:06;;;;;;;2.13;1.00;;;17.80;99.90;;;;;;5092571;28;20048;-72
2022/07/11 06:54:32;;;;;;;2.37;0.93;;;17.90;99.90;;;;;;5093448;28;20126;-72
2022/07/11 06:56:57;;;;;;;2.13;1.10;;;17.90;99.90;;;;;;5093564;28;20043;-72
2022/07/11 06:59:23;;;;;;;2.20;1.07;;;17.90;99.90;;;;;;5093361;28;20047;-72
2022/07/11 07:01:49;;;;;;;2.03;1.00;;;18.00;99.90;;;;;;5093129;28;20044;-72
2022/07/11 07:04:15;;;;;;;1.60;1.13;;;18.10;99.90;;;;;;5092677;28;20051;-72
2022/07/11 07:06:41;;;;;;;2.57;1.10;;;18.00;99.90;;;;;;5092318;28;20056;-72
2022/07/11 07:09:06;;;;;;;2.60;1.20;;;18.00;99.90;;;;;;5093448;28;20123;-73
2022/07/11 07:11:32;;;;;;;3.70;1.10;;;18.00;99.90;;;;;;5093066;28;20051;-72
2022/07/11 07:13:58;;;;;;;2.43;1.30;;;18.00;99.90;;;;;;5093270;28;20438;-73
2022/07/11 07:16:23;;;;;;;3.00;1.10;;;18.00;99.90;;;;;;5093142;28;20052;-73
2022/07/11 07:18:50;;;;;;;3.57;1.00;;;18.10;99.90;;;;;;5092970;28;20429;-73
2022/07/11 07:21:16;;;;;;;2.50;0.90;;;18.20;99.90;;;;;;5093361;28;20048;-73
2022/07/11 07:23:41;;;;;;;2.20;1.00;;;18.40;99.90;;;;;;5092824;28;20048;-74
2022/07/11 07:26:07;;;;;;;1.73;1.00;;;18.50;99.90;;;;;;5092028;28;20052;-74
2022/07/11 07:28:33;;;;;;;2.17;0.80;;;18.50;99.90;;;;;;5092741;28;20040;-75
2022/07/11 07:30:59;;;;;;;1.63;0.83;;;18.50;99.90;;;;;;5093165;28;20505;-75
2022/07/11 07:33:25;;;;;;;2.07;0.93;;;18.50;99.90;;;;;;5093289;28;20122;-74
2022/07/11 07:35:50;;;;;;;3.67;1.03;;;18.50;99.90;;;;;;5091640;28;20086;-75
2022/07/11 07:38:16;;;;;;;3.13;1.10;;;18.60;99.90;;;;;;5092898;28;20063;-75
2022/07/11 07:40:42;;;;;;;2.57;0.80;;;18.60;99.90;;;;;;5092638;28;20048;-75
2022/07/11 07:43:08;;;;;;;2.27;1.00;;;18.70;99.90;;;;;;5091946;28;20048;-74
2022/07/11 07:45:34;;;;;;;1.70;0.93;;;18.60;99.90;;;;;;5092489;28;20514;-74
2022/07/11 07:47:59;;;;;;;2.07;0.90;;;18.70;99.90;;;;;;5093292;28;20052;-74
2022/07/11 07:50:25;;;;;;;2.07;0.90;;;18.80;99.90;;;;;;5091907;28;20048;-74
2022/07/11 07:52:51;;;;;;;2.33;1.10;;;19.50;99.90;;;;;;5091675;28;20051;-75
2022/07/11 07:55:18;;;;;;;2.03;0.80;;;20.00;99.90;;;;;;5092750;28;20048;-75
2022/07/11 07:57:44;;;;;;;2.17;0.90;;;19.90;99.90;;;;;;5092508;28;20463;-75
2022/07/11 08:02:54;;;;;;;3.10;0.85;;;19.60;99.90;;;;;;5092589;28;20048;-74
2022/07/11 08:05:20;;;;;;;2.90;1.00;;;19.30;99.90;;;;;;5092798;28;20052;-73
2022/07/11 08:07:46;;;;;;;2.60;0.90;;;19.30;99.90;;;;;;5092576;28;20442;-74
2022/07/11 08:10:14;;;;;;;2.07;0.70;;;19.20;99.90;;;;;;5092636;28;20040;-74
2022/07/11 08:12:40;;;;;;;1.00;0.77;;;19.10;99.90;;;;;;5091263;28;20044;-75
2022/07/11 08:15:06;;;;;;;2.93;0.90;;;19.00;99.90;;;;;;5093780;28;20131;-75
2022/07/11 08:17:32;;;;;;;3.13;0.90;;;19.00;99.90;;;;;;5096732;28;20052;-76
2022/07/11 08:19:58;;;;;;;2.90;1.07;;;19.00;99.90;;;;;;5095092;28;20570;-74
2022/07/11 08:22:25;;;;;;;1.53;0.80;;;19.00;99.90;;;;;;5096703;28;20507;-74
2022/07/11 08:24:50;;;;;;;2.23;0.90;;;19.10;99.90;;;;;;5096142;28;20087;-75
2022/07/11 08:27:16;;;;;;;3.37;1.00;;;19.30;99.90;;;;;;5096378;28;20079;-75
2022/07/11 08:29:42;;;;;;;2.07;0.87;;;19.70;99.90;;;;;;5096259;28;20086;-74
2022/07/11 08:32:08;;;;;;;1.93;0.83;;;20.10;99.90;;;;;;5096650;28;20123;-74
2022/07/11 08:34:34;;;;;;;2.23;0.70;;;20.40;99.90;;;;;;5096400;28;20480;-73
2022/07/11 08:37:00;;;;;;;1.10;0.70;;;20.30;99.90;;;;;;5095128;28;20056;-74
2022/07/11 08:39:25;;;;;;;1.70;0.80;;;20.10;99.90;;;;;;5096013;28;20052;-72
2022/07/11 08:41:51;;;;;;;2.83;0.83;;;20.00;99.90;;;;;;5095803;28;20127;-73
2022/07/11 08:44:19;;;;;;;0.50;0.50;;;19.90;99.90;;;;;;5095824;28;20039;-72
2022/07/11 08:46:45;;;;;;;2.20;0.77;;;19.90;99.90;;;;;;5095372;28;20104;-73
2022/07/11 08:49:14;;;;;;;1.50;0.83;;;20.00;99.90;;;;;;5096116;28;20104;-73
2022/07/11 08:51:41;;;;;;;1.40;0.80;;;20.20;99.90;;;;;;5095044;28;20051;-72
2022/07/11 08:54:07;;;;;;;1.17;0.60;;;20.70;99.90;;;;;;5096003;28;20555;-72
2022/07/11 08:56:33;;;;;;;1.20;0.60;;;21.10;99.90;;;;;;5095779;28;20135;-72
2022/07/11 08:58:59;;;;;;;2.10;0.80;;;21.40;99.90;;;;;;5095676;28;20127;-73
2022/07/11 09:01:33;;;;;;;1.03;0.73;;;21.40;99.90;;;;;;5095065;28;20399;-73
2022/07/11 09:04:00;;;;;;;0.73;0.60;;;21.30;99.90;;;;;;5095649;28;20051;-72
2022/07/11 09:06:26;;;;;;;2.57;0.90;;;21.10;99.90;;;;;;5095662;28;20128;-72
2022/07/11 09:08:52;;;;;;;1.87;0.70;;;20.80;99.90;;;;;;5095275;28;20044;-73
2022/07/11 09:11:17;;;;;;;3.10;1.10;;;20.60;99.90;;;;;;5095821;28;20506;-72
2022/07/11 09:13:43;;;;;;;1.63;0.80;;;20.40;99.90;;;;;;5095680;28;20515;-74
2022/07/11 09:16:09;;;;;;;2.63;0.77;;;20.20;99.90;;;;;;5095513;28;20067;-68
2022/07/11 09:18:36;;;;;;;3.07;0.93;;;20.00;99.90;;;;;;5095494;28;20044;-68
2022/07/11 09:26:47;;;;;;;2.53;0.70;;;20.30;99.90;;;;;;5094973;28;20470;-74
2022/07/11 09:29:21;;;;;;;3.60;0.80;;;20.30;99.90;;;;;;5095504;28;20392;-75
2022/07/11 09:31:48;;;;;;;6.03;1.45;;;20.40;99.90;;;;;;5093962;28;20051;-69
2022/07/11 09:34:26;;;;;;;2.00;0.87;;;20.30;99.90;;;;;;5095490;28;20044;-76
2022/07/11 09:36:54;;;;;;;2.27;1.00;;;20.20;99.90;;;;;;5095089;28;20126;-75
2022/07/11 09:39:29;;;;;;;3.30;1.10;;;20.20;99.90;;;;;;5094982;28;20067;-74
2022/07/11 09:41:56;;;;;;;2.05;0.77;;;20.20;99.90;;;;;;5094863;28;20056;-68
2022/07/11 09:44:33;;;;;;;1.03;0.70;;;20.30;99.90;;;;;;5094783;28;20047;-69
2022/07/11 09:46:59;;;;;;;0.90;0.77;;;20.40;99.90;;;;;;5094919;28;20097;-73
2022/07/11 09:49:36;;;;;;;0.63;0.63;;;20.40;99.90;;;;;;5094989;28;20036;-73
2022/07/11 09:52:08;;;;;;;2.90;0.70;;;20.50;99.90;;;;;;5094297;28;20048;-68
2022/07/11 09:54:51;;;;;;;1.03;0.73;;;20.40;99.90;;;;;;5094137;28;20403;-67
2022/07/11 09:57:16;;;;;;;0.80;0.70;;;20.40;99.90;;;;;;5094986;28;20047;-69
2022/07/11 09:59:42;;;;;;;2.60;0.70;;;20.40;99.90;;;;;;5094659;28;20044;-68
2022/07/11 10:02:14;;;;;;;2.47;0.80;;;20.50;99.90;;;;;;5094267;28;20050;-69
2022/07/11 10:04:40;;;;;;;1.00;0.60;;;20.60;99.90;;;;;;5094722;28;20040;-68
2022/07/11 10:07:06;;;;;;;1.20;0.80;;;20.60;99.90;;;;;;5094136;28;20057;-68
2022/07/11 10:09:31;;;;;;;2.60;0.70;;;20.70;99.90;;;;;;5093892;28;20044;-70
2022/07/11 10:11:57;;;;;;;1.40;0.90;;;20.80;99.90;;;;;;5093623;28;20043;-68
2022/07/11 10:14:23;;;;;;;0.70;0.70;;;21.00;99.90;;;;;;5094062;28;20036;-69
2022/07/11 10:17:09;;;;;;;1.77;0.67;;;21.10;99.90;;;;;;5092842;28;20040;-74
2022/07/11 10:19:41;;;;;;;2.97;0.80;;;21.20;99.90;;;;;;5094210;28;20043;-75
2022/07/11 10:22:19;;;;;;;3.57;0.90;;;21.10;99.90;;;;;;5094104;28;20091;-68
2022/07/11 10:25:08;;;;;;;1.10;0.70;;;21.20;99.90;;;;;;5094385;28;20055;-71
2022/07/11 10:27:46;;;;;;;1.40;0.63;;;21.10;99.90;;;;;;5077683;28;20056;-71
2022/07/11 10:30:11;;;;;;;2.13;0.60;;;21.00;99.90;;;;;;5093748;28;20040;-68
2022/07/11 10:33:00;;;;;;;1.47;0.70;;;20.90;99.90;;;;;;5094360;28;20560;-68
2022/07/11 10:35:29;;;;;;;1.67;0.63;;;20.90;99.90;;;;;;5094189;28;20126;-68
2022/07/11 10:37:55;;;;;;;0.60;0.60;;;20.90;99.90;;;;;;5093219;28;20056;-74
2022/07/11 10:40:41;;;;;;;1.37;0.70;;;21.00;99.90;;;;;;5092036;28;20105;-75
2022/07/11 10:43:07;;;;;;;1.23;0.70;;;21.10;99.90;;;;;;5093739;28;20044;-74
2022/07/11 10:46:02;;;;;;;0.67;0.53;;;21.20;99.90;;;;;;5094031;28;20105;-75
2022/07/11 10:48:29;;;;;;;;;;;21.40;99.90;;;;;;5094257;28;20094;-76
2022/07/11 10:51:33;;;;;;;1.47;0.60;;;21.30;99.90;;;;;;5093520;28;20440;-75
2022/07/11 10:54:12;;;;;;;2.73;0.87;;;21.30;99.90;;;;;;5084993;28;20405;-75
2022/07/11 10:57:09;;;;;;;5.00;0.87;;;21.30;99.90;;;;;;5093855;28;20048;-74
2022/07/11 11:00:05;;;;;;;1.37;0.70;;;21.30;99.90;;;;;;5093656;28;20083;-75
2022/07/11 11:02:51;;;;;;;1.80;0.70;;;21.20;99.90;;;;;;5093645;28;20171;-75
2022/07/11 11:05:39;;;;;;;2.70;0.70;;;21.10;99.90;;;;;;5091933;28;20483;-74
2022/07/11 11:08:35;;;;;;;2.60;0.70;;;21.10;99.90;;;;;;5093302;28;20501;-74
2022/07/11 11:11:23;;;;;;;1.40;0.75;;;21.10;99.90;;;;;;5092226;28;20055;-69
2022/07/11 11:14:17;;;;;;;1.43;1.00;;;21.10;99.90;;;;;;5092454;28;20052;-72
2022/07/11 11:16:43;;;;;;;1.57;0.70;;;21.10;99.90;;;;;;5094729;28;20083;-73
2022/07/11 11:19:46;;;;;;;1.80;0.80;;;21.20;99.90;;;;;;5094623;28;20040;-73
2022/07/11 11:22:17;;;;;;;0.77;0.67;;;21.30;99.90;;;;;;5093992;28;20052;-71
2022/07/11 11:24:43;;;;;;;1.63;0.80;;;21.30;99.90;;;;;;5093985;28;20126;-76
2022/07/11 11:27:21;;;;;;;2.73;0.90;;;21.40;99.90;;;;;;5093935;28;20093;-81
2022/07/11 11:29:51;;;;;;;1.60;0.70;;;21.50;99.90;;;;;;5093003;28;20083;-73
2022/07/11 11:32:18;;;;;;;1.13;0.73;;;21.50;99.90;;;;;;5094178;28;20056;-74
2022/07/11 11:34:45;;;;;;;1.63;1.13;;;21.60;99.90;;;;;;5093746;28;20054;-74
2022/07/11 11:37:10;;;;;;;4.23;0.73;;;21.60;99.90;;;;;;5093699;28;20127;-76
2022/07/11 11:39:41;;;;;;;1.50;0.90;;;21.60;99.90;;;;;;5093939;28;20134;-77
2022/07/11 11:42:16;;;;;;;3.47;0.70;;;21.60;99.90;;;;;;5094433;28;20048;-77
2022/07/11 11:44:51;;;;;;;1.53;0.70;;;21.50;99.90;;;;;;5093406;28;20055;-77
2022/07/11 11:47:16;;;;;;;1.10;0.70;;;21.60;99.90;;;;;;5093608;28;20044;-74
2022/07/11 11:49:47;;;;;;;2.03;0.90;;;21.60;99.90;;;;;;5093379;28;20093;-74
2022/07/11 11:52:13;;;;;;;0.80;0.60;;;21.50;99.90;;;;;;5094150;28;20052;-71
2022/07/11 11:54:39;;;;;;;1.20;0.60;;;21.60;99.90;;;;;;5093586;28;20127;-72
2022/07/11 11:57:11;;;;;;;2.03;0.80;;;21.70;99.90;;;;;;5093537;28;20123;-72
2022/07/11 11:59:38;;;;;;;1.40;0.80;;;21.70;99.90;;;;;;5093472;28;20047;-72
2022/07/11 12:02:03;;;;;;;1.30;0.70;;;21.80;99.90;;;;;;5093553;28;20048;-76
2022/07/11 12:04:34;;;;;;;2.00;0.77;;;21.80;99.90;;;;;;5093462;28;20097;-74
2022/07/11 12:07:03;;;;;;;0.80;0.60;;;21.80;99.90;;;;;;5093376;28;20044;-73
2022/07/11 12:09:50;;;;;;;3.40;0.60;;;21.90;99.90;;;;;;5093342;28;20044;-75
2022/07/11 12:15:06;;;;;;;1.33;0.70;;;21.80;99.90;;;;;;5093401;28;20052;-74
2022/07/11 12:17:32;;;;;;;0.83;0.63;;;21.80;99.90;;;;;;5093295;28;20123;-75
2022/07/11 12:19:58;;;;;;;2.73;0.80;;;;;;;;;;5093691;28;20139;-75
2022/07/11 12:22:25;;;;;;;2.00;0.80;;;21.60;99.90;;;;;;5093196;28;20040;-74
2022/07/11 12:24:52;;;;;;;1.43;0.80;;;21.50;99.90;;;;;;5092475;28;20059;-74
2022/07/11 12:27:24;;;;;;;1.97;1.00;;;21.40;99.90;;;;;;5093100;28;20178;-75
2022/07/11 12:29:51;;;;;;;1.67;1.00;;;21.40;99.90;;;;;;5092938;28;20076;-75
2022/07/11 12:32:22;;;;;;;2.20;0.90;;;21.40;99.90;;;;;;5093859;28;20055;-73
2022/07/11 12:34:49;;;;;;;2.67;1.00;;;21.40;99.90;;;;;;5093487;28;20488;-79
2022/07/11 12:37:16;;;;;;;1.17;0.90;;;21.40;99.90;;;;;;5093325;28;20404;-75
2022/07/11 12:39:59;;;;;;;3.03;0.90;;;21.40;99.90;;;;;;5093382;28;20131;-76
2022/07/11 12:42:33;;;;;;;2.90;0.97;;;21.40;99.90;;;;;;5093110;28;20044;-74
2022/07/11 12:45:07;;;;;;;1.55;0.80;;;21.40;99.90;;;;;;5093916;28;20119;-74
2022/07/11 12:47:47;;;;;;;3.10;1.10;;;21.30;99.90;;;;;;5092659;28;20079;-75
2022/07/11 12:50:15;;;;;;;2.30;1.00;;;21.30;99.90;;;;;;5093144;28;20051;-75
2022/07/11 12:52:46;;;;;;;0.97;0.80;;;21.30;99.90;;;;;;5092967;28;20058;-74
2022/07/11 12:55:34;;;;;;;2.40;0.80;;;21.20;99.90;;;;;;5092988;28;20048;-76
2022/07/11 12:58:16;;;;;;;1.27;0.70;;;21.30;99.90;;;;;;5092905;28;20078;-74
2022/07/11 13:00:59;;;;;;;1.93;0.73;;;21.40;99.90;;;;;;5093080;28;20114;-77
2022/07/11 13:03:36;;;;;;;1.43;0.83;;;21.50;99.90;;;;;;5095363;28;20421;-75
2022/07/11 13:06:02;;;;;;;1.00;0.80;;;21.40;99.90;;;;;;5096517;28;20043;-76
2022/07/11 13:08:47;;;;;;;2.73;1.00;;;21.60;99.90;;;;;;5095212;28;20040;-75